Time;durP1;ratioP1;P1;durP2;ratioP2;P2;SDS_P1;SDS_P2;PMS_P1;PMS_P2;Temp;Humidity;BMP_temperature;BMP_pressure;BME280_temperature;BME280_humidity;BME280_pressure;Samples;Min_cycle;Max_cycle;Signal;HPM_P1;HPM_P2
2022/06/23 00:01:12;;;;;;;8.27;7.07;;;21.70;99.90;;;;;;5093453;28;20485;-57
2022/06/23 00:03:42;;;;;;;8.73;7.20;;;21.70;99.90;;;;;;5093425;28;20989;-57
2022/06/23 00:06:20;;;;;;;8.53;6.50;;;21.70;99.90;;;;;;5093285;28;20456;-58
2022/06/23 00:08:48;;;;;;;10.03;7.17;;;21.70;99.90;;;;;;5093645;28;20451;-57
2022/06/23 00:11:21;;;;;;;10.73;7.40;;;21.80;99.90;;;;;;5094651;28;20497;-58
2022/06/23 00:13:49;;;;;;;8.90;5.70;;;21.80;99.90;;;;;;5093536;28;20510;-58
2022/06/23 00:16:25;;;;;;;11.23;8.53;;;21.80;99.90;;;;;;5094340;28;20831;-58
2022/06/23 00:18:54;;;;;;;13.30;7.23;;;21.70;99.90;;;;;;5094021;28;20816;-58
2022/06/23 00:21:25;;;;;;;20.00;9.10;;;21.50;99.90;;;;;;5094407;28;20486;-58
2022/06/23 00:23:55;;;;;;;9.10;7.27;;;21.70;99.90;;;;;;5093231;28;20523;-57
2022/06/23 00:26:26;;;;;;;11.20;7.80;;;21.80;99.90;;;;;;5094070;28;20891;-57
2022/06/23 00:29:00;;;;;;;11.10;8.00;;;21.90;99.90;;;;;;5093889;28;20454;-57
2022/06/23 00:31:29;;;;;;;17.40;8.90;;;21.70;99.90;;;;;;5093257;28;20428;-57
2022/06/23 00:33:59;;;;;;;9.80;6.90;;;21.50;99.90;;;;;;5093454;28;20858;-57
2022/06/23 00:36:34;;;;;;;15.17;11.37;;;21.80;99.90;;;;;;5093297;28;20506;-58
2022/06/23 00:39:02;;;;;;;11.40;9.53;;;21.70;99.90;;;;;;5093053;28;20489;-57
2022/06/23 00:41:32;;;;;;;12.57;7.50;;;21.50;99.90;;;;;;5094186;28;20539;-56
2022/06/23 00:44:05;;;;;;;11.17;8.80;;;21.60;99.90;;;;;;5094094;28;20487;-57
2022/06/23 00:46:38;;;;;;;10.57;9.47;;;22.00;99.90;;;;;;5093566;28;20887;-57
2022/06/23 00:49:17;;;;;;;21.17;10.53;;;22.00;99.90;;;;;;5093369;28;20491;-58
2022/06/23 00:51:49;;;;;;;16.83;8.27;;;21.80;99.90;;;;;;5093098;28;20434;-57
2022/06/23 00:54:22;;;;;;;13.57;8.00;;;21.50;99.90;;;;;;5096768;28;20434;-57
2022/06/23 00:56:55;;;;;;;11.10;8.23;;;21.20;99.90;;;;;;5097291;28;20424;-58
2022/06/23 00:59:29;;;;;;;9.67;8.03;;;21.00;99.90;;;;;;5096985;28;20459;-58
2022/06/23 01:02:00;;;;;;;20.67;9.30;;;21.10;99.90;;;;;;5096970;28;20427;-57
2022/06/23 01:04:42;;;;;;;17.07;9.23;;;21.10;99.90;;;;;;5096524;28;20906;-58
2022/06/23 01:07:37;;;;;;;9.57;7.70;;;21.00;99.90;;;;;;5096752;28;20913;-57
2022/06/23 01:10:14;;;;;;;13.20;8.57;;;21.10;99.90;;;;;;5096960;28;20490;-57
2022/06/23 01:12:47;;;;;;;13.63;9.40;;;21.00;99.90;;;;;;5096762;28;20434;-57
2022/06/23 01:15:26;;;;;;;16.10;9.10;;;21.10;99.90;;;;;;5096654;28;20430;-57
2022/06/23 01:17:58;;;;;;;12.97;9.37;;;20.90;99.90;;;;;;5096825;28;20433;-58
2022/06/23 01:20:36;;;;;;;12.07;9.30;;;20.70;99.90;;;;;;5096420;28;20574;-58
2022/06/23 01:23:33;;;;;;;14.27;8.17;;;20.70;99.90;;;;;;5096349;28;20438;-57
2022/06/23 01:26:27;;;;;;;12.70;8.67;;;20.60;99.90;;;;;;5096164;28;20470;-57
2022/06/23 01:29:03;;;;;;;11.10;7.40;;;20.40;99.90;;;;;;5096064;28;20431;-57
2022/06/23 01:31:39;;;;;;;18.87;8.90;;;20.20;99.90;;;;;;5096417;28;20423;-57
2022/06/23 01:34:15;;;;;;;11.90;8.23;;;20.20;99.90;;;;;;5096080;28;20894;-58
2022/06/23 01:36:47;;;;;;;10.23;8.57;;;20.20;99.90;;;;;;5096235;28;20814;-58
2022/06/23 01:39:20;;;;;;;16.27;8.27;;;20.20;99.90;;;;;;5096297;28;20469;-57
2022/06/23 01:41:53;;;;;;;11.73;8.30;;;20.40;99.90;;;;;;5096449;28;20436;-57
2022/06/23 01:44:36;;;;;;;11.07;7.60;;;20.60;99.90;;;;;;5095765;28;20459;-57
2022/06/23 01:47:14;;;;;;;17.63;8.00;;;20.70;99.90;;;;;;5096086;28;20424;-57
2022/06/23 01:49:44;;;;;;;12.23;8.37;;;20.70;99.90;;;;;;5096010;28;20526;-57
2022/06/23 01:52:14;;;;;;;13.03;8.33;;;20.40;99.90;;;;;;5096252;28;20424;-57
2022/06/23 01:54:41;;;;;;;9.67;6.77;;;20.20;99.90;;;;;;5095614;28;20930;-57
2022/06/23 01:57:23;;;;;;;11.57;7.47;;;20.20;99.90;;;;;;5095620;28;20450;-57
2022/06/23 02:00:03;;;;;;;20.70;8.43;;;20.50;99.90;;;;;;5096103;28;20439;-57
2022/06/23 02:02:43;;;;;;;12.83;7.10;;;20.70;99.90;;;;;;5096874;28;20523;-57
2022/06/23 02:05:23;;;;;;;9.70;6.83;;;20.50;99.90;;;;;;5095187;28;20460;-57
2022/06/23 02:07:56;;;;;;;12.93;6.83;;;20.50;99.90;;;;;;5095758;28;20457;-58
2022/06/23 02:10:29;;;;;;;13.23;7.33;;;20.50;99.90;;;;;;5095696;28;20463;-56
2022/06/23 02:13:07;;;;;;;10.53;7.60;;;20.20;99.90;;;;;;5095600;28;20435;-57
2022/06/23 02:15:45;;;;;;;12.13;7.90;;;20.10;99.90;;;;;;5095801;28;20426;-57
2022/06/23 02:18:18;;;;;;;14.83;6.37;;;20.00;99.90;;;;;;5095727;28;20438;-57
2022/06/23 02:21:01;;;;;;;11.93;7.20;;;19.80;99.90;;;;;;5095071;28;20467;-58
2022/06/23 02:23:38;;;;;;;12.20;6.47;;;19.80;99.90;;;;;;5095206;28;20408;-57
2022/06/23 02:26:20;;;;;;;6.93;5.90;;;19.80;99.90;;;;;;5095270;28;20494;-58
2022/06/23 02:28:56;;;;;;;12.20;5.50;;;20.00;99.90;;;;;;5095239;28;20779;-58
2022/06/23 02:31:34;;;;;;;13.47;5.63;;;20.00;99.90;;;;;;5095290;28;20431;-58
2022/06/23 02:34:12;;;;;;;10.87;5.67;;;19.90;99.90;;;;;;5095128;28;20424;-57
2022/06/23 02:36:59;;;;;;;9.47;6.10;;;20.00;99.90;;;;;;5095108;28;20833;-57
2022/06/23 02:39:31;;;;;;;8.90;6.07;;;19.90;99.90;;;;;;5054808;28;20457;-57
2022/06/23 02:42:02;;;;;;;11.20;6.20;;;19.70;99.90;;;;;;5054891;28;20421;-58
2022/06/23 02:44:58;;;;;;;11.07;6.17;;;19.70;99.90;;;;;;5054551;28;20461;-58
2022/06/23 02:47:44;;;;;;;9.23;6.00;;;19.80;99.90;;;;;;5054477;28;20928;-57
2022/06/23 02:50:29;;;;;;;8.47;5.50;;;20.00;99.90;;;;;;5054600;28;20469;-58
2022/06/23 02:53:12;;;;;;;16.00;5.87;;;19.90;99.90;;;;;;5055161;28;20429;-57
2022/06/23 02:56:05;;;;;;;17.13;5.50;;;19.70;99.90;;;;;;5054643;28;20459;-57
2022/06/23 02:58:36;;;;;;;13.17;6.70;;;19.70;99.90;;;;;;5054581;28;20426;-58
2022/06/23 03:01:09;;;;;;;7.83;5.53;;;19.60;99.90;;;;;;5054131;28;20536;-57
2022/06/23 03:03:44;;;;;;;8.20;5.10;;;19.50;99.90;;;;;;5054440;28;20468;-58
2022/06/23 03:06:19;;;;;;;13.57;5.77;;;20.00;99.90;;;;;;5054701;28;20504;-58
2022/06/23 03:08:52;;;;;;;13.77;6.47;;;19.80;99.90;;;;;;5053998;28;20429;-58
2022/06/23 03:11:51;;;;;;;5.60;5.03;;;19.70;99.90;;;;;;5054060;28;20889;-58
2022/06/23 03:14:19;;;;;;;7.77;5.33;;;19.70;99.90;;;;;;5053889;28;20492;-57
2022/06/23 03:16:51;;;;;;;6.47;5.23;;;19.90;99.90;;;;;;5053407;28;20429;-58
2022/06/23 03:19:27;;;;;;;13.83;5.87;;;20.00;99.90;;;;;;5054126;28;20843;-58
2022/06/23 03:22:05;;;;;;;7.83;5.17;;;20.00;99.90;;;;;;5054319;28;20433;-58
2022/06/23 03:24:39;;;;;;;12.33;5.40;;;19.90;99.90;;;;;;5054037;28;20406;-57
2022/06/23 03:27:18;;;;;;;8.20;5.60;;;20.00;99.90;;;;;;5054573;28;20820;-58
2022/06/23 03:29:52;;;;;;;9.33;6.60;;;20.20;99.90;;;;;;5053927;28;20764;-58
2022/06/23 03:32:23;;;;;;;8.90;5.60;;;20.20;99.90;;;;;;5053953;28;20525;-58
2022/06/23 03:35:00;;;;;;;10.63;6.30;;;20.10;99.90;;;;;;5053937;28;20453;-58
2022/06/23 03:37:38;;;;;;;12.70;5.77;;;20.00;99.90;;;;;;5062610;28;20482;-57
2022/06/23 03:43:10;;;;;;;17.77;6.70;;;19.80;99.90;;;;;;5094254;28;20511;-58
2022/06/23 03:45:42;;;;;;;11.23;5.60;;;19.90;99.90;;;;;;5093582;28;20470;-57
2022/06/23 03:48:16;;;;;;;8.23;5.30;;;20.20;99.90;;;;;;5093980;28;20423;-57
2022/06/23 03:50:49;;;;;;;10.90;5.90;;;20.30;99.90;;;;;;5094360;28;20478;-58
2022/06/23 03:53:23;;;;;;;10.63;5.40;;;20.40;99.90;;;;;;5094013;28;20530;-57
2022/06/23 03:55:54;;;;;;;6.10;5.50;;;20.40;99.90;;;;;;5093882;28;20424;-57
2022/06/23 03:58:25;;;;;;;13.47;6.07;;;20.50;99.90;;;;;;5093602;28;20485;-58
2022/06/23 04:00:59;;;;;;;9.03;5.33;;;20.30;99.90;;;;;;5093781;28;20571;-57
2022/06/23 04:03:31;;;;;;;11.87;6.13;;;20.10;99.90;;;;;;5093796;28;20434;-57
2022/06/23 04:06:30;;;;;;;22.40;7.17;;;20.20;99.90;;;;;;5093668;28;20554;-57
2022/06/23 04:09:05;;;;;;;12.07;5.90;;;20.20;99.90;;;;;;5093642;28;20447;-57
2022/06/23 04:11:44;;;;;;;10.33;6.10;;;20.10;99.90;;;;;;5093429;28;20992;-57
2022/06/23 04:14:18;;;;;;;10.80;5.63;;;19.80;99.90;;;;;;5093843;28;20423;-58
2022/06/23 04:16:46;;;;;;;9.10;6.93;;;19.70;99.90;;;;;;5094241;28;20430;-57
2022/06/23 04:19:19;;;;;;;13.53;6.37;;;19.70;99.90;;;;;;5093218;28;20550;-58
2022/06/23 04:21:57;;;;;;;14.37;6.30;;;19.60;99.90;;;;;;5093587;28;20515;-57
2022/06/23 04:24:27;;;;;;;11.17;5.93;;;19.80;99.90;;;;;;5093571;28;20958;-57
2022/06/23 04:26:59;;;;;;;9.63;7.00;;;20.00;99.90;;;;;;5093618;28;20994;-58
2022/06/23 04:29:34;;;;;;;14.63;6.60;;;20.00;99.90;;;;;;5097161;28;20981;-58
2022/06/23 04:32:04;;;;;;;11.10;6.30;;;19.90;99.90;;;;;;5097767;28;20506;-58
2022/06/23 04:34:35;;;;;;;12.83;6.50;;;19.70;99.90;;;;;;5097268;28;20527;-57
2022/06/23 04:37:04;;;;;;;12.00;5.83;;;19.80;99.90;;;;;;5096844;28;20452;-57
2022/06/23 04:39:36;;;;;;;13.13;5.80;;;20.00;99.90;;;;;;5097391;28;20494;-58
2022/06/23 04:42:11;;;;;;;16.27;6.37;;;20.20;99.90;;;;;;5097325;28;20431;-57
2022/06/23 04:44:45;;;;;;;10.80;6.80;;;20.20;99.90;;;;;;5097112;28;20433;-57
2022/06/23 04:47:18;;;;;;;12.37;6.10;;;20.10;99.90;;;;;;5097349;28;20844;-58
2022/06/23 04:49:50;;;;;;;17.07;7.10;;;20.10;99.90;;;;;;5097792;28;20499;-58
2022/06/23 04:52:27;;;;;;;9.20;6.30;;;20.00;99.90;;;;;;5096820;28;20868;-58
2022/06/23 04:55:04;;;;;;;13.60;7.10;;;19.90;99.90;;;;;;5096810;28;20435;-57
2022/06/23 04:57:41;;;;;;;12.20;6.50;;;20.20;99.90;;;;;;5096630;28;20522;-57
2022/06/23 05:00:22;;;;;;;12.30;6.70;;;20.30;99.90;;;;;;5096938;28;20463;-57
2022/06/23 05:02:53;;;;;;;16.37;7.13;;;20.20;99.90;;;;;;5096923;28;20442;-57
2022/06/23 05:05:24;;;;;;;9.00;6.40;;;20.10;99.90;;;;;;5097334;28;20500;-57
2022/06/23 05:07:59;;;;;;;10.90;6.30;;;20.00;99.90;;;;;;5096869;28;20572;-58
2022/06/23 05:10:31;;;;;;;15.83;7.60;;;20.30;99.90;;;;;;5096345;28;20551;-58
2022/06/23 05:13:02;;;;;;;17.73;6.33;;;20.50;99.90;;;;;;5097059;28;20535;-57
2022/06/23 05:15:33;;;;;;;7.60;6.30;;;20.50;99.90;;;;;;5096285;28;20512;-57
2022/06/23 05:18:04;;;;;;;13.40;7.73;;;20.50;99.90;;;;;;5097188;28;20424;-57
2022/06/23 05:20:35;;;;;;;17.00;7.40;;;20.70;99.90;;;;;;5096438;28;20566;-57
2022/06/23 05:23:04;;;;;;;11.03;6.70;;;20.70;99.90;;;;;;5096421;28;20602;-57
2022/06/23 05:25:40;;;;;;;9.37;6.30;;;20.70;99.90;;;;;;5096304;28;20514;-57
2022/06/23 05:28:10;;;;;;;13.00;7.70;;;20.70;99.90;;;;;;5096066;28;20510;-58
2022/06/23 05:30:42;;;;;;;15.77;6.70;;;20.70;99.90;;;;;;5096545;28;20464;-57
2022/06/23 05:33:17;;;;;;;10.57;6.30;;;20.70;99.90;;;;;;5096116;28;20424;-57
2022/06/23 05:35:49;;;;;;;8.60;5.80;;;20.70;99.90;;;;;;5096029;28;20435;-58
2022/06/23 05:38:31;;;;;;;8.73;5.77;;;20.80;99.90;;;;;;5095770;28;20471;-57
2022/06/23 05:41:02;;;;;;;14.00;6.30;;;20.80;99.90;;;;;;5095341;28;20495;-58
2022/06/23 05:43:33;;;;;;;11.37;5.50;;;21.00;99.90;;;;;;5095423;28;20436;-57
2022/06/23 05:46:04;;;;;;;15.53;7.60;;;21.00;99.90;;;;;;5095886;28;20464;-58
2022/06/23 05:48:34;;;;;;;16.63;6.87;;;21.30;99.90;;;;;;5095598;28;20533;-58
2022/06/23 05:51:08;;;;;;;11.77;6.27;;;21.30;99.90;;;;;;5095646;28;20470;-58
2022/06/23 05:53:43;;;;;;;10.93;5.63;;;21.40;99.90;;;;;;5095434;28;20527;-58
2022/06/23 05:56:17;;;;;;;9.93;5.90;;;21.40;99.90;;;;;;5095315;28;20489;-57
2022/06/23 05:58:49;;;;;;;10.37;6.37;;;21.60;99.90;;;;;;5095595;28;20883;-58
2022/06/23 06:01:23;;;;;;;10.70;4.90;;;21.70;99.90;;;;;;5095642;28;20519;-58
2022/06/23 06:03:59;;;;;;;12.40;5.83;;;21.60;99.90;;;;;;5095160;28;20980;-56
2022/06/23 06:06:26;;;;;;;9.40;5.87;;;21.60;99.90;;;;;;5095231;28;20489;-57
2022/06/23 06:11:44;;;;;;;9.90;6.50;;;21.50;99.90;;;;;;5084849;28;20432;-58
2022/06/23 06:14:14;;;;;;;17.33;6.67;;;21.50;99.90;;;;;;5095824;28;20443;-58
2022/06/23 06:16:41;;;;;;;7.73;5.30;;;21.60;99.90;;;;;;5095023;28;20538;-57
2022/06/23 06:19:13;;;;;;;16.60;6.57;;;21.90;99.90;;;;;;5095645;28;20499;-58
2022/06/23 06:21:41;;;;;;;11.83;5.73;;;22.20;99.90;;;;;;5095443;28;20407;-58
2022/06/23 06:24:18;;;;;;;16.70;6.43;;;22.00;99.90;;;;;;5094734;28;20443;-58
2022/06/23 06:26:49;;;;;;;8.60;5.50;;;21.80;99.90;;;;;;5094767;28;20467;-57
2022/06/23 06:29:21;;;;;;;15.93;7.10;;;21.60;99.90;;;;;;5094691;28;20558;-57
2022/06/23 06:31:52;;;;;;;13.90;5.07;;;21.70;99.90;;;;;;5095038;28;20435;-58
2022/06/23 06:34:24;;;;;;;10.10;6.53;;;21.80;99.90;;;;;;5094562;28;20434;-58
2022/06/23 06:36:53;;;;;;;10.43;6.70;;;22.10;99.90;;;;;;5094584;28;20771;-57
2022/06/23 06:39:26;;;;;;;13.43;7.33;;;22.30;99.90;;;;;;5094636;28;20470;-58
2022/06/23 06:41:58;;;;;;;11.20;5.80;;;22.40;99.90;;;;;;5094425;28;20430;-58
2022/06/23 06:44:25;;;;;;;17.13;6.03;;;22.30;99.90;;;;;;5094500;28;20875;-58
2022/06/23 06:46:54;;;;;;;15.10;7.00;;;22.60;99.90;;;;;;5094057;28;20479;-58
2022/06/23 06:49:23;;;;;;;11.73;7.60;;;22.50;99.90;;;;;;5095365;28;20550;-57
2022/06/23 06:51:54;;;;;;;14.67;6.87;;;22.50;99.90;;;;;;5093947;28;21001;-58
2022/06/23 06:54:25;;;;;;;12.80;7.20;;;22.30;99.90;;;;;;5094513;28;20531;-58
2022/06/23 06:56:56;;;;;;;11.47;6.90;;;22.30;99.90;;;;;;5095323;28;20514;-58
2022/06/23 06:59:29;;;;;;;9.80;7.30;;;22.50;99.90;;;;;;5094936;28;20471;-58
2022/06/23 07:02:01;;;;;;;13.20;4.83;;;23.10;99.90;;;;;;5094451;28;20432;-58
2022/06/23 07:04:36;;;;;;;12.87;6.50;;;23.80;99.90;;;;;;5094480;28;20428;-58
2022/06/23 07:07:07;;;;;;;8.20;5.93;;;24.40;99.90;;;;;;5094202;28;20508;-58
2022/06/23 07:09:42;;;;;;;10.23;5.53;;;24.50;99.90;;;;;;5094222;28;20808;-58
2022/06/23 07:12:15;;;;;;;9.83;5.80;;;24.80;99.90;;;;;;5093978;28;20906;-59
2022/06/23 07:14:49;;;;;;;10.67;7.63;;;24.90;99.90;;;;;;5093700;28;20436;-58
2022/06/23 07:17:24;;;;;;;9.53;6.40;;;24.30;99.90;;;;;;5093894;28;20924;-59
2022/06/23 07:19:57;;;;;;;19.10;7.10;;;23.90;99.90;;;;;;5093610;28;20966;-58
2022/06/23 07:22:29;;;;;;;10.33;7.30;;;23.50;99.90;;;;;;5093554;28;20424;-57
2022/06/23 07:25:02;;;;;;;8.53;6.63;;;23.30;99.90;;;;;;5094002;28;20515;-57
2022/06/23 07:27:35;;;;;;;10.03;5.47;;;23.20;99.90;;;;;;5093225;28;20995;-58
2022/06/23 07:30:07;;;;;;;10.40;5.40;;;23.40;99.90;;;;;;5093609;28;21008;-58
2022/06/23 07:32:46;;;;;;;12.50;6.00;;;23.60;99.90;;;;;;5093440;28;20511;-58
2022/06/23 07:35:27;;;;;;;9.10;5.50;;;23.50;99.90;;;;;;5093584;28;20898;-58
2022/06/23 07:38:01;;;;;;;13.70;5.60;;;23.60;99.90;;;;;;5093028;28;20504;-58
2022/06/23 07:40:34;;;;;;;8.77;5.90;;;24.40;99.90;;;;;;5093564;28;20495;-58
2022/06/23 07:43:08;;;;;;;11.87;5.50;;;25.40;99.90;;;;;;5094164;28;20431;-58
2022/06/23 07:45:40;;;;;;;12.30;5.50;;;26.00;99.90;;;;;;5093729;28;20848;-58
2022/06/23 07:48:08;;;;;;;8.87;4.93;;;26.40;99.90;;;;;;5093285;28;20435;-58
2022/06/23 07:50:35;;;;;;;8.27;4.97;;;26.00;99.90;;;;;;5093131;28;20920;-58
2022/06/23 07:53:02;;;;;;;8.63;5.40;;;26.20;99.90;;;;;;5094107;28;20535;-58
2022/06/23 07:55:36;;;;;;;8.63;4.90;;;27.40;99.90;;;;;;5093262;28;20435;-58
2022/06/23 07:58:03;;;;;;;10.63;5.53;;;27.90;99.90;;;;;;5093293;28;20475;-58
2022/06/23 08:00:37;;;;;;;11.03;4.40;;;28.40;99.90;;;;;;5093518;28;20555;-58
2022/06/23 08:03:12;;;;;;;7.37;4.23;;;28.50;99.90;;;;;;5093109;28;20459;-59
2022/06/23 08:05:44;;;;;;;9.70;4.17;;;28.10;99.90;;;;;;5093330;28;20787;-58
2022/06/23 08:08:15;;;;;;;10.53;5.07;;;28.10;99.90;;;;;;5094058;28;20493;-57
2022/06/23 08:10:44;;;;;;;8.13;4.47;;;28.50;99.90;;;;;;5093250;28;20463;-58
2022/06/23 08:13:16;;;;;;;8.10;5.70;;;28.70;99.90;;;;;;5093657;28;20534;-58
2022/06/23 08:18:37;;;;;;;8.20;4.77;;;28.10;99.90;;;;;;5093838;28;20415;-58
2022/06/23 08:21:11;;;;;;;8.13;4.57;;;28.30;99.90;;;;;;5093560;28;20509;-58
2022/06/23 08:23:42;;;;;;;9.50;4.20;;;28.70;99.90;;;;;;5093190;28;20438;-58
2022/06/23 08:26:12;;;;;;;9.07;3.93;;;28.90;99.90;;;;;;5093334;28;20495;-58
2022/06/23 08:28:40;;;;;;;10.93;4.00;;;29.20;99.90;;;;;;5093435;28;20452;-58
2022/06/23 08:31:08;;;;;;;5.70;3.37;;;29.70;99.90;;;;;;5093208;28;20476;-57
2022/06/23 08:33:35;;;;;;;8.07;3.40;;;30.20;99.90;;;;;;5093422;28;20446;-58
2022/06/23 08:36:11;;;;;;;4.53;3.77;;;30.50;99.90;;;;;;5092874;28;20444;-58
2022/06/23 08:38:42;;;;;;;13.07;4.50;;;30.70;99.90;;;;;;5092796;28;20917;-57
2022/06/23 08:41:22;;;;;;;9.30;4.33;;;31.00;99.90;;;;;;5092895;28;20428;-58
2022/06/23 08:43:56;;;;;;;8.00;3.97;;;31.30;99.90;;;;;;5093303;28;20862;-58
2022/06/23 08:46:28;;;;;;;9.43;4.30;;;31.40;99.90;;;;;;5093110;28;20546;-58
2022/06/23 08:49:03;;;;;;;12.40;4.03;;;30.00;99.90;;;;;;5092952;28;20454;-58
2022/06/23 08:51:40;;;;;;;10.70;4.90;;;30.40;99.90;;;;;;5093085;28;20521;-58
2022/06/23 08:54:17;;;;;;;10.90;4.83;;;30.80;99.90;;;;;;5093098;28;20533;-57
2022/06/23 08:56:52;;;;;;;7.03;4.43;;;30.60;99.90;;;;;;5092810;28;20432;-57
2022/06/23 08:59:26;;;;;;;7.37;3.90;;;30.40;99.90;;;;;;5092632;28;20459;-58
2022/06/23 09:02:05;;;;;;;7.23;3.40;;;30.70;99.90;;;;;;5093044;28;20462;-58
2022/06/23 09:04:42;;;;;;;7.43;3.87;;;30.60;99.90;;;;;;5092870;28;20463;-58
2022/06/23 09:07:21;;;;;;;7.73;3.80;;;31.10;99.90;;;;;;5092854;28;20590;-58
2022/06/23 09:09:54;;;;;;;11.27;4.13;;;30.70;99.90;;;;;;5092490;28;20505;-58
2022/06/23 09:12:31;;;;;;;6.80;4.10;;;30.80;99.90;;;;;;5092501;28;21001;-58
2022/06/23 09:15:30;;;;;;;7.07;4.33;;;31.20;99.90;;;;;;5094274;28;20427;-57
2022/06/23 09:18:33;;;;;;;6.10;4.47;;;31.60;99.90;;;;;;5095960;28;20470;-58
2022/06/23 09:21:17;;;;;;;8.03;3.70;;;31.60;99.90;;;;;;5095415;28;20490;-58
2022/06/23 09:24:08;;;;;;;5.70;3.93;;;31.80;99.30;;;;;;5096161;28;20513;-58
2022/06/23 09:26:40;;;;;;;5.63;4.13;;;32.00;99.90;;;;;;5095568;28;20463;-58
2022/06/23 09:29:22;;;;;;;7.43;3.97;;;31.70;99.90;;;;;;5096153;28;20470;-58
2022/06/23 09:31:58;;;;;;;9.60;3.93;;;32.10;97.80;;;;;;5095855;28;20420;-58
2022/06/23 09:34:58;;;;;;;5.00;3.30;;;32.30;98.00;;;;;;5096598;28;20428;-58
2022/06/23 09:38:00;;;;;;;6.20;3.50;;;32.10;98.20;;;;;;5095828;28;20557;-58
2022/06/23 09:40:36;;;;;;;7.57;3.50;;;32.00;97.40;;;;;;5095665;28;20550;-57
2022/06/23 09:43:37;;;;;;;10.47;3.60;;;32.20;97.10;;;;;;5095839;28;20458;-57
2022/06/23 09:46:49;;;;;;;6.57;3.30;;;32.20;97.90;;;;;;5095528;28;20518;-58
2022/06/23 09:49:41;;;;;;;7.00;3.20;;;32.00;96.30;;;;;;5095754;28;20977;-58
2022/06/23 09:52:22;;;;;;;6.20;3.10;;;31.60;96.10;;;;;;5095795;28;20436;-58
2022/06/23 09:55:05;;;;;;;7.37;4.03;;;32.00;96.10;;;;;;5095439;28;20514;-58
2022/06/23 09:57:59;;;;;;;9.93;3.67;;;32.20;95.80;;;;;;5096365;28;20420;-58
2022/06/23 10:00:38;;;;;;;13.00;4.43;;;32.20;96.10;;;;;;5095409;28;20463;-58
2022/06/23 10:03:20;;;;;;;6.00;2.97;;;32.70;93.70;;;;;;5095343;28;20912;-58
2022/06/23 10:06:18;;;;;;;9.13;3.70;;;32.90;93.50;;;;;;5095215;28;20887;-58
2022/06/23 10:08:54;;;;;;;7.00;3.67;;;31.80;91.90;;;;;;5095578;28;20423;-57
2022/06/23 10:11:41;;;;;;;5.90;3.80;;;32.00;91.50;;;;;;5095487;28;20445;-58
2022/06/23 10:14:26;;;;;;;7.97;4.10;;;32.90;90.70;;;;;;5095254;28;20625;-58
2022/06/23 10:17:25;;;;;;;6.43;3.80;;;32.20;91.90;;;;;;5095193;28;20419;-58
2022/06/23 10:20:27;;;;;;;7.77;3.90;;;31.70;91.50;;;;;;5079634;28;20513;-58
2022/06/23 10:23:09;;;;;;;7.00;3.23;;;31.20;92.10;;;;;;5071365;28;20434;-59
2022/06/23 10:25:49;;;;;;;6.37;3.40;;;31.60;92.50;;;;;;5094722;28;20458;-58
2022/06/23 10:28:45;;;;;;;16.30;5.40;;;31.90;91.80;;;;;;5094963;28;20491;-58
2022/06/23 10:31:25;;;;;;;8.33;4.37;;;32.00;92.00;;;;;;5094869;28;20427;-57
2022/06/23 10:34:11;;;;;;;6.33;3.40;;;32.60;92.70;;;;;;5095076;28;20447;-58
2022/06/23 10:36:50;;;;;;;7.13;3.60;;;32.90;91.20;;;;;;5094932;28;20438;-58
2022/06/23 10:39:35;;;;;;;6.10;3.07;;;33.00;90.90;;;;;;5094382;28;20587;-57
2022/06/23 10:42:35;;;;;;;11.50;5.00;;;32.80;91.40;;;;;;5094592;28;20481;-58
2022/06/23 10:45:25;;;;;;;5.90;3.20;;;32.70;89.50;;;;;;5092366;28;20454;-58
2022/06/23 10:48:28;;;;;;;11.20;3.40;;;32.90;90.30;;;;;;5094473;28;20502;-58
2022/06/23 10:51:04;;;;;;;4.70;3.27;;;32.90;90.10;;;;;;5058165;28;20956;-57
2022/06/23 10:54:11;;;;;;;5.20;3.17;;;33.00;90.20;;;;;;5094678;28;20514;-58
2022/06/23 10:57:04;;;;;;;6.30;3.47;;;33.20;88.10;;;;;;5094466;28;20554;-58
2022/06/23 10:59:41;;;;;;;5.07;3.30;;;33.30;89.20;;;;;;5094184;28;20541;-58
2022/06/23 11:02:52;;;;;;;8.53;3.30;;;33.20;88.70;;;;;;5094443;28;20412;-58
2022/06/23 11:05:45;;;;;;;6.30;3.23;;;33.60;85.80;;;;;;5093876;28;20431;-58
2022/06/23 11:08:32;;;;;;;7.07;3.80;;;33.90;85.70;;;;;;5086730;28;20478;-60
2022/06/23 11:11:14;;;;;;;6.47;3.90;;;33.60;83.70;;;;;;5094373;28;20462;-59
2022/06/23 11:13:55;;;;;;;7.00;3.00;;;33.70;83.10;;;;;;5094894;28;20441;-60
2022/06/23 11:16:33;;;;;;;4.90;3.17;;;34.20;84.00;;;;;;5094149;28;20431;-60
2022/06/23 11:19:13;;;;;;;8.90;3.60;;;34.70;79.30;;;;;;5093996;28;20505;-59
2022/06/23 11:21:57;;;;;;;7.30;3.20;;;34.40;78.90;;;;;;5093656;28;20435;-58
2022/06/23 11:24:36;;;;;;;6.23;3.17;;;33.80;77.60;;;;;;5094054;28;20454;-57
2022/06/23 11:27:15;;;;;;;4.73;2.90;;;34.20;79.10;;;;;;5095092;28;20506;-58
2022/06/23 11:30:14;;;;;;;7.67;2.97;;;34.20;77.50;;;;;;5094966;28;20570;-57
2022/06/23 11:32:54;;;;;;;5.40;2.77;;;34.00;76.20;;;;;;5050291;28;20450;-58
2022/06/23 11:35:29;;;;;;;5.80;3.20;;;;;;;;;;5094113;28;20423;-59
2022/06/23 11:38:23;;;;;;;7.03;3.20;;;32.50;74.00;;;;;;5093357;28;20509;-57
2022/06/23 11:41:05;;;;;;;10.43;3.20;;;32.60;75.00;;;;;;5093667;28;20451;-58
2022/06/23 11:43:46;;;;;;;7.27;3.30;;;32.90;76.80;;;;;;5112117;28;20434;-57
2022/06/23 11:46:24;;;;;;;4.57;2.80;;;33.10;75.00;;;;;;5114208;28;20403;-57
2022/06/23 11:49:18;;;;;;;5.73;3.13;;;32.50;75.10;;;;;;5113758;28;20473;-57
2022/06/23 11:52:02;;;;;;;8.87;3.23;;;32.70;76.60;;;;;;5103397;28;20473;-57
2022/06/23 11:54:49;;;;;;;8.43;3.00;;;33.30;76.50;;;;;;5106773;28;20435;-57
2022/06/23 11:57:33;;;;;;;6.40;2.60;;;33.90;72.00;;;;;;5110793;28;20442;-57
2022/06/23 12:00:07;;;;;;;8.90;3.47;;;33.10;71.90;;;;;;5113620;28;20515;-57
2022/06/23 12:02:41;;;;;;;6.37;2.80;;;33.20;72.50;;;;;;5113558;28;20427;-58
2022/06/23 12:05:19;;;;;;;6.73;2.80;;;33.50;73.20;;;;;;5112802;28;20447;-58
2022/06/23 12:08:05;;;;;;;7.00;3.30;;;33.50;73.10;;;;;;5111813;28;20976;-58
2022/06/23 12:10:36;;;;;;;8.67;2.80;;;33.40;74.30;;;;;;5096558;28;20471;-58
2022/06/23 12:13:04;;;;;;;6.50;2.80;;;33.40;76.90;;;;;;5107898;28;20478;-58
2022/06/23 12:15:35;;;;;;;8.90;3.37;;;33.50;72.50;;;;;;5110481;28;20446;-58
2022/06/23 12:18:13;;;;;;;5.17;3.67;;;32.90;74.00;;;;;;5093339;28;20482;-59
2022/06/23 12:20:50;;;;;;;5.53;2.60;;;32.30;77.00;;;;;;5112003;28;20549;-59
2022/06/23 12:23:23;;;;;;;8.07;3.67;;;33.40;77.20;;;;;;5113449;28;20461;-59
2022/06/23 12:26:02;;;;;;;5.90;3.30;;;33.20;77.20;;;;;;5111499;28;20491;-60
2022/06/23 12:28:38;;;;;;;9.00;3.40;;;33.00;74.30;;;;;;5097853;28;20474;-60
2022/06/23 12:31:16;;;;;;;9.77;4.20;;;32.00;77.20;;;;;;5092805;28;20484;-61
2022/06/23 12:33:54;;;;;;;5.87;2.83;;;31.60;77.30;;;;;;5092811;28;20424;-59
2022/06/23 12:36:29;;;;;;;7.93;3.87;;;31.70;76.70;;;;;;5093265;28;20428;-58
2022/06/23 12:39:01;;;;;;;7.90;3.33;;;31.60;76.10;;;;;;5093614;28;20961;-59
2022/06/23 12:41:32;;;;;;;9.17;3.63;;;;;;;;;;5093118;28;20534;-59
2022/06/23 12:44:04;;;;;;;13.90;3.77;;;33.10;75.60;;;;;;5092862;28;20542;-59
2022/06/23 12:46:45;;;;;;;11.43;3.60;;;33.40;74.50;;;;;;5092947;28;20438;-59
2022/06/23 12:49:40;;;;;;;8.00;3.50;;;33.30;75.50;;;;;;5095366;28;20490;-59
2022/06/23 12:52:24;;;;;;;10.33;4.13;;;32.30;75.80;;;;;;5094714;28;21103;-57
2022/06/23 12:55:12;;;;;;;11.07;3.70;;;32.20;75.20;;;;;;5096679;28;20476;-57
2022/06/23 12:57:54;;;;;;;11.63;3.60;;;32.70;75.30;;;;;;5096625;28;20444;-59
2022/06/23 13:00:40;;;;;;;9.53;3.83;;;33.10;74.30;;;;;;5096682;28;20538;-58
2022/06/23 13:03:20;;;;;;;8.77;3.53;;;32.60;76.00;;;;;;5096691;28;20507;-58
2022/06/23 13:05:53;;;;;;;8.10;3.43;;;32.90;74.40;;;;;;5096283;28;20518;-58
2022/06/23 13:08:25;;;;;;;6.63;3.33;;;32.70;74.60;;;;;;5097311;28;20467;-58
2022/06/23 13:10:57;;;;;;;8.47;3.43;;;32.30;75.50;;;;;;5096232;28;20515;-59
2022/06/23 13:13:29;;;;;;;8.37;3.20;;;32.40;72.90;;;;;;5096504;28;20458;-59
2022/06/23 13:16:02;;;;;;;10.97;4.30;;;32.30;73.10;;;;;;5096471;28;20502;-58
2022/06/23 13:18:37;;;;;;;5.53;3.60;;;32.20;74.10;;;;;;5096988;28;20798;-59
2022/06/23 13:21:12;;;;;;;7.33;3.87;;;32.50;73.50;;;;;;5096667;28;20525;-59
2022/06/23 13:23:44;;;;;;;6.07;4.10;;;32.50;75.10;;;;;;5096647;28;20901;-59
2022/06/23 13:26:17;;;;;;;6.60;2.87;;;32.50;70.40;;;;;;5096504;28;20455;-58
2022/06/23 13:28:46;;;;;;;6.20;3.50;;;32.50;71.80;;;;;;5096229;28;20524;-58
2022/06/23 13:31:19;;;;;;;9.87;4.50;;;32.80;74.30;;;;;;5095819;28;20863;-57
2022/06/23 13:33:55;;;;;;;5.77;3.07;;;32.50;73.20;;;;;;5095930;28;20530;-58
2022/06/23 13:36:27;;;;;;;5.67;3.47;;;32.30;73.80;;;;;;5096083;28;20447;-58
2022/06/23 13:39:05;;;;;;;7.33;3.30;;;32.10;74.30;;;;;;5095502;28;20471;-58
2022/06/23 13:41:39;;;;;;;10.73;3.40;;;31.80;73.40;;;;;;5095821;28;20529;-58